Startpagina
METAR-TAF:

METAR-TAF

Vliegvelden :

Maastricht Aachen Airport

Maastricht Aken, Nederland

breedte: 50-55N, lengte: 005-47E, hoogte: 114 m

Actueel weer

Dit bericht is 23 minuten geleden gemaakt, om 07:25 UTC
Wind 4 kt uit het zuiden
Temperatuur 9°C
Vochtigheid 87%
Druk 1022 hPa
Zicht 10 km of meer

METAR: EHBK 180725Z AUTO 19004KT 9999 NSC 09/07 Q1022 NOSIG

Tijdstip: 09:48 (07:48 UTC)

Verwachting

Dit bericht is 3 uur en het 3 minuten geleden gemaakt, om 04:45 UTC
Verwachting geldig van 18 om 06 UTC tot 19 om 12 UTC
Wind 5 kt uit het zuiden
Zicht 10 km of meer
geen wolken onder 1500 m en geen cumulonimbus
Wijzigt naar
van 19 om 00 UTC tot 19 om 03 UTC
Wind 10 kt uit het zuidzuidwesten
Zicht: 6000 m
Gebroken wolken op 1400 ft
regen, motregen
Wijzigt naar
van 19 om 03 UTC tot 19 om 06 UTC
Zicht: 3000 m
Gebroken wolken op 600 ft
motregen, regen, nevel

TAF: EHBK 180445Z 1806/1912 18005KT CAVOK BECMG 1900/1903 21010KT 6000 RADZ BKN014 BECMG 1903/1906 3000 DZRA BR BKN006

Waarnemingen en weersverwachtingen van meer dan 4000 vliegvelden (METAR en TAF).

De beschikbare stations zijn de gele en rode punten op de kaart.

Ga met uw muis naar het station om de naam te zien.

Klik dan om waarnemingen en weersverwachtingen te zien.

kaart wijzigen: klik op de groene knoppen met een zwart kruis om in te zoomen, op de groene knop met een streepje om uit te zoomen of op de groene pijlen voor aangrenzende kaarten.


METAR-TAF: